Lowder, Illinois
Current Conditions -  °F | °C
As of 8:03 AM on Monday 22 Dec 2014 (Local Time) from KSPI Reporting Station
Light Rain Light Rain  
Wind Chill: 28°   Ceiling: 1200
Heat Index: 36°   Visibility: 2.5mi
Dew Point: 33°   Wind: 13mph
Humidity: 89%   Direction: 130°SE
Pressure: 29.81"   Gusts: NA
Location:  39.55°N, 89.85°W
Report Text: KSPI 221403Z 13011KT 2 1/2SM -RA BR FEW007 BKN012 OVC041 02/01 A2981 RMK AO2 P0002 T00220006
Loading
Personal Weather Stations






























Interactive Weather Map New forecast layout! Learn more

10-Day Weather Forecast

Advertisements
Track Severe Weather on mobile